Other Surface Observations
Issued by NWS Missoula, MT

Home | Current Version | Previous Version | Text Only | Print | Product List | Glossary On
Versions: 1 2 3 4 5 6 7 8 9 10 11 12 13 14 15 16 17 18 19 20 21 22 23 24 25 26 27 28 29 30 31 32 33 34 35 36 37 38 39 40 41 42 43 44 45 46 47 48 49 50
000
SXUS55 KMSO 261044
OSOMSO
MONTANA AWOS SUMMARY
NATIONAL WEATHER SERVICE MISSOULA MT
343 AM MST SUN APR 26 2015

Montana AWOS Reports

LAUREL      |K6S8 261035Z AUTO 34004KT 40SM 04/00 A2991 RMK AO1 T00440000
TWIN BRIDGES|K7S1 261035Z AUTO 34016G22KT 310V010 40SM 03/M02 A2983 RMK AO1 T00281016
ROUNDUP     |KRPX 261035Z AUTO 36005KT 40SM 03/00 A2988 RMK AO1 T00330000
MALTA       |KM75 261035Z AUTO 29011G15KT 40SM 03/M02 A2998 RMK AO1 T00331016




USA.gov is the U.S. government's official web portal to all federal, state and local government web resources and services.